.
WxDataArchive / Data Records for 2013-02-17
2013-02-16 February 2013 2013-02-18

Data Records for Sunday, 17 February 2013

Time	Temp	Chill	HIndex	Humid	Dewpt	 Wind 	HiWind	WindDir	Rain 	Barom 
-----	----	-----	------	-----	-----	------	------	-------	-----	----- 
00:00	13.5	13.5	13.5	72	6.2	0	1	248	0.00	30.140 
00:05	13.6	13.6	13.6	72	6.3	0	2	248	0.00	30.140 
00:10	13.6	13.6	13.6	72	6.3	0	1	248	0.00	30.140 
00:15	13.6	13.6	13.6	72	6.3	0	2	248	0.00	30.140 
00:20	13.6	13.6	13.6	72	6.3	0	2	248	0.00	30.140 
00:25	13.6	13.6	13.6	73	6.6	0	1	248	0.00	30.140 
00:30	13.5	13.5	13.5	73	6.5	0	1	248	0.00	30.139 
00:35	13.5	13.5	13.5	73	6.5	0	2	248	0.00	30.139 
00:40	13.5	13.5	13.5	73	6.5	0	2	248	0.00	30.139 
00:45	13.6	13.6	13.6	73	6.6	0	2	248	0.00	30.140 
00:50	13.6	13.6	13.6	73	6.6	0	2	248	0.00	30.140 
00:55	13.6	13.6	13.6	73	6.6	0	2	248	0.00	30.140 
01:00	13.6	13.6	13.6	73	6.6	0	2	248	0.00	30.140 
01:05	13.6	13.6	13.6	74	6.9	0	2	248	0.00	30.140 
01:10	13.5	13.5	13.5	74	6.8	0	2	248	0.00	30.140 
01:15	13.5	13.5	13.5	74	6.8	0	1	248	0.00	30.139 
01:20	13.5	13.5	13.5	74	6.8	0	2	248	0.00	30.139 
01:25	13.5	13.5	13.5	74	6.8	0	3	248	0.00	30.139 
01:30	13.5	13.5	13.5	74	6.8	0	1	248	0.00	30.139 
01:35	13.5	13.5	13.5	74	6.8	0	1	248	0.00	30.139 
01:40	13.5	13.5	13.5	74	6.8	0	2	248	0.00	30.139 
01:45	13.5	13.5	13.5	74	6.8	0	1	248	0.00	30.137 
01:50	13.5	13.5	13.5	74	6.8	0	2	248	0.00	30.137 
01:55	13.5	13.5	13.5	74	6.8	0	2	248	0.00	30.137 
02:00	13.5	13.5	13.5	73	6.5	0	1	248	0.00	30.136 
02:05	13.6	13.6	13.6	73	6.6	0	1	248	0.00	30.136 
02:10	13.6	13.6	13.6	73	6.6	0	2	248	0.00	30.136 
02:15	13.6	13.6	13.6	73	6.6	0	2	248	0.00	30.137 
02:20	13.6	13.6	13.6	73	6.6	0	1	248	0.00	30.137 
02:25	13.6	13.6	13.6	73	6.6	0	2	248	0.00	30.137 
02:30	13.6	13.6	13.6	73	6.6	0	2	248	0.00	30.139 
02:35	13.5	13.5	13.5	73	6.5	0	1	248	0.00	30.139 
02:40	13.5	13.5	13.5	74	6.8	0	2	248	0.00	30.139 
02:45	13.5	13.5	13.5	74	6.8	0	1	248	0.00	30.139 
02:50	13.5	13.5	13.5	74	6.8	0	1	248	0.00	30.139 
02:55	13.5	13.5	13.5	75	7.1	0	2	248	0.00	30.139 
03:00	13.5	13.5	13.5	75	7.1	0	2	248	0.00	30.142 
03:05	13.5	13.5	13.5	75	7.1	0	1	248	0.00	30.142 
03:10	13.3	13.3	13.3	75	6.9	0	1	248	0.00	30.142 
03:15	13.3	13.3	13.3	76	7.2	0	0	---	0.00	30.146 
03:20	13.3	13.3	13.3	76	7.2	0	1	248	0.00	30.146 
03:25	13.5	13.5	13.5	77	7.7	0	1	248	0.00	30.146 
03:30	13.8	13.8	13.8	77	7.9	0	1	248	0.00	30.146 
03:35	14.0	14.0	14.0	77	8.1	0	1	248	0.00	30.146 
03:40	14.3	14.3	14.3	77	8.4	0	1	248	0.00	30.146 
03:45	14.4	14.4	14.4	77	8.5	0	1	248	0.00	30.147 
03:50	14.6	14.6	14.6	77	8.7	0	1	248	0.00	30.147 
03:55	14.6	14.6	14.6	78	9.0	0	2	248	0.00	30.147 
04:00	14.8	14.8	14.8	78	9.2	0	1	248	0.00	30.144 
04:05	14.8	14.8	14.8	78	9.2	0	2	248	0.00	30.144 
04:10	14.9	14.9	14.9	78	9.3	0	2	248	0.00	30.144 
04:15	15.1	15.1	15.1	78	9.5	0	2	315	0.00	30.149 
04:20	15.2	15.2	15.2	78	9.6	0	2	315	0.00	30.149 
04:25	15.2	15.2	15.2	78	9.6	1	2	315	0.00	30.149 
04:30	15.4	15.4	15.4	78	9.8	1	4	248	0.00	30.150 
04:35	15.4	15.4	15.4	77	9.5	1	3	338	0.00	30.150 
04:40	15.4	15.4	15.4	78	9.8	1	3	338	0.00	30.150 
04:45	15.4	15.4	15.4	77	9.5	1	4	292	0.00	30.156 
04:50	15.4	15.4	15.4	77	9.5	1	4	315	0.00	30.156 
04:55	15.4	15.4	15.4	77	9.5	1	4	292	0.00	30.156 
05:00	15.4	15.4	15.4	76	9.2	1	4	270	0.00	30.157 
05:05	15.4	15.4	15.4	76	9.2	1	2	270	0.00	30.157 
05:10	15.2	15.2	15.2	76	9.0	1	4	338	0.00	30.157 
05:15	15.2	15.2	15.2	76	9.0	1	4	315	0.00	30.165 
05:20	15.2	15.2	15.2	76	9.0	1	2	292	0.00	30.165 
05:25	15.2	15.2	15.2	76	9.0	1	3	315	0.00	30.165 
05:30	15.2	15.2	15.2	76	9.0	1	4	270	0.00	30.166 
05:35	15.1	15.1	15.1	76	8.9	1	4	315	0.00	30.166 
05:40	15.1	15.1	15.1	76	8.9	1	4	270	0.00	30.166 
05:45	15.1	15.1	15.1	75	8.6	0	2	270	0.00	30.172 
05:50	14.9	14.9	14.9	75	8.4	0	2	270	0.00	30.172 
05:55	14.9	14.9	14.9	75	8.4	0	2	292	0.00	30.172 
06:00	14.8	14.8	14.8	76	8.6	0	1	292	0.00	30.179 
06:05	14.8	14.8	14.8	76	8.6	0	1	292	0.00	30.179 
06:10	14.6	14.6	14.6	76	8.4	0	1	292	0.00	30.179 
06:15	14.6	14.6	14.6	76	8.4	0	2	292	0.00	30.182 
06:20	14.6	14.6	14.6	76	8.4	1	3	292	0.00	30.182 
06:25	14.4	14.4	14.4	76	8.2	0	1	292	0.00	30.182 
06:30	14.3	14.3	14.3	76	8.1	0	3	292	0.00	30.190 
06:35	14.1	14.1	14.1	76	8.0	0	2	270	0.00	30.190 
06:40	14.0	14.0	14.0	76	7.9	0	1	270	0.00	30.190 
06:45	13.8	13.8	13.8	76	7.7	0	1	270	0.00	30.197 
06:50	13.6	13.6	13.6	77	7.8	0	1	270	0.00	30.197 
06:55	13.5	13.5	13.5	77	7.7	0	0	---	0.00	30.197 
07:00	13.3	13.3	13.3	77	7.5	0	0	---	0.00	30.199 
07:05	13.3	13.3	13.3	77	7.5	0	0	---	0.00	30.199 
07:10	13.1	13.1	13.1	77	7.3	0	0	---	0.00	30.199 
07:15	12.9	12.9	12.9	77	7.1	0	0	---	0.00	30.207 
07:20	12.8	12.8	12.8	78	7.3	0	0	---	0.00	30.207 
07:25	12.6	12.6	12.6	78	7.1	0	0	---	0.00	30.207 
07:30	12.4	12.4	12.4	78	6.9	0	0	---	0.00	30.208 
07:35	12.3	12.3	12.3	78	6.8	0	0	---	0.00	30.208 
07:40	12.1	12.1	12.1	78	6.6	0	0	---	0.00	30.208 
07:45	12.1	12.1	12.1	79	6.9	0	0	---	0.00	30.215 
07:50	11.9	11.9	11.9	79	6.7	0	0	---	0.00	30.215 
07:55	11.9	11.9	11.9	79	6.7	0	1	270	0.00	30.215 
08:00	12.1	12.1	12.1	80	7.1	0	0	---	0.00	30.221 
08:05	12.3	12.3	12.3	80	7.3	0	0	---	0.00	30.221 
08:10	12.4	12.4	12.4	80	7.4	0	0	---	0.00	30.221 
08:15	12.8	12.8	12.8	81	8.1	0	0	---	0.00	30.231 
08:20	13.1	13.1	13.1	81	8.4	0	0	---	0.00	30.231 
08:25	13.6	13.6	13.6	81	8.9	0	1	270	0.00	30.231 
08:30	14.0	14.0	14.0	81	9.3	0	1	270	0.00	30.234 
08:35	14.4	14.4	14.4	81	9.7	0	1	270	0.00	30.234 
08:40	14.8	14.8	14.8	81	10.0	0	2	270	0.00	30.234 
08:45	15.1	15.1	15.1	80	10.1	0	2	270	0.00	30.233 
08:50	15.4	15.4	15.4	80	10.4	0	3	270	0.00	30.233 
08:55	15.6	15.6	15.6	79	10.3	1	4	270	0.00	30.233 
09:00	16.1	16.1	16.1	79	10.8	1	2	338	0.00	30.239 
09:05	16.4	16.4	16.4	78	10.8	1	3	338	0.00	30.239 
09:10	16.7	16.7	16.7	77	10.8	0	2	338	0.00	30.239 
09:15	17.2	17.2	17.2	77	11.3	0	2	338	0.00	30.243 
09:20	17.5	17.5	17.5	76	11.3	0	2	338	0.00	30.243 
09:25	17.8	17.8	17.8	76	11.5	1	3	338	0.00	30.243 
09:30	18.0	18.0	18.0	73	10.8	1	3	270	0.00	30.243 
09:35	18.3	18.3	18.3	73	11.1	0	2	248	0.00	30.243 
09:40	18.8	18.8	18.8	72	11.3	0	2	248	0.00	30.243 
09:45	19.2	19.2	19.2	71	11.4	0	2	248	0.00	30.243 
09:50	19.4	19.4	19.4	70	11.2	0	1	248	0.00	30.243 
09:55	19.5	19.5	19.5	69	11.0	0	2	248	0.00	30.243 
10:00	20.0	20.0	20.0	68	11.2	0	2	248	0.00	30.240 
10:05	20.3	20.3	20.3	65	10.4	1	3	248	0.00	30.240 
10:10	20.5	20.5	20.5	64	10.3	1	3	248	0.00	30.240 
10:15	20.6	20.6	20.6	63	10.0	0	2	248	0.00	30.243 
10:20	21.0	21.0	21.0	63	10.4	1	3	248	0.00	30.243 
10:25	21.3	21.3	21.3	62	10.3	1	2	248	0.00	30.243 
10:30	21.6	21.6	21.6	62	10.6	0	2	248	0.00	30.242 
10:35	22.1	22.1	22.1	61	10.7	0	2	248	0.00	30.242 
10:40	22.4	22.4	22.4	59	10.3	1	2	248	0.00	30.242 
10:45	22.7	22.7	22.7	57	9.8	0	2	248	0.00	30.246 
10:50	22.9	22.9	22.9	54	8.8	0	2	248	0.00	30.246 
10:55	23.0	23.0	23.0	55	9.3	1	2	248	0.00	30.246 
11:00	23.0	23.0	23.0	54	8.9	1	3	248	0.00	30.252 
11:05	23.2	23.2	23.2	54	9.1	1	2	248	0.00	30.252 
11:10	23.3	23.3	23.3	53	8.7	0	2	270	0.00	30.252 
11:15	23.5	23.5	23.5	52	8.5	1	3	270	0.00	30.251 
11:20	23.5	23.5	23.5	50	7.6	1	3	315	0.00	30.251 
11:25	23.6	23.6	23.6	50	7.7	1	2	315	0.00	30.251 
11:30	23.8	23.8	23.8	51	8.3	1	3	315	0.00	30.251 
11:35	24.1	24.1	24.1	47	6.8	1	4	45	0.00	30.251 
11:40	24.1	24.1	24.1	46	6.3	1	4	315	0.00	30.251 
11:45	24.4	24.4	24.4	48	7.6	1	2	315	0.00	30.248 
11:50	24.7	24.7	24.7	45	6.4	1	4	270	0.00	30.248 
11:55	24.8	24.8	24.8	45	6.5	1	5	270	0.00	30.248 
12:00	24.7	24.7	24.7	44	5.9	0	2	338	0.00	30.244 
12:05	24.4	24.4	24.4	43	5.2	0	2	338	0.00	30.244 
12:10	24.4	24.4	24.4	44	5.7	1	3	338	0.00	30.244 
12:15	24.8	24.8	24.8	43	5.5	1	2	270	0.00	30.247 
12:20	25.0	25.0	25.0	43	5.7	1	4	338	0.00	30.247 
12:25	25.0	25.0	25.0	43	5.7	1	2	270	0.00	30.247 
12:30	24.8	24.8	24.8	42	5.0	1	4	270	0.00	30.244 
12:35	25.0	25.0	25.0	43	5.7	1	3	315	0.00	30.244 
12:40	24.7	24.7	24.7	41	4.4	1	3	315	0.00	30.244 
12:45	24.4	24.4	24.4	40	3.6	1	3	315	0.00	30.239 
12:50	24.4	24.4	24.4	41	4.1	1	3	270	0.00	30.239 
12:55	24.4	24.4	24.4	42	4.6	1	4	0	0.00	30.239 
13:00	24.4	24.4	24.4	43	5.2	0	2	0	0.00	30.239 
13:05	24.5	24.5	24.5	42	4.7	1	2	0	0.00	30.239 
13:10	24.8	24.8	24.8	42	5.0	0	2	0	0.00	30.239 
13:15	24.7	24.7	24.7	42	4.9	1	3	315	0.00	30.238 
13:20	24.7	24.7	24.7	44	5.9	0	2	315	0.00	30.238 
13:25	24.8	24.8	24.8	43	5.5	0	2	315	0.00	30.238 
13:30	24.8	24.8	24.8	44	6.0	0	2	315	0.00	30.231 
13:35	25.0	25.0	25.0	45	6.7	0	1	315	0.00	30.231 
13:40	25.0	25.0	25.0	45	6.7	0	2	315	0.00	30.231 
13:45	25.0	25.0	25.0	45	6.7	0	2	90	0.00	30.225 
13:50	24.8	24.8	24.8	45	6.5	0	3	90	0.00	30.225 
13:55	24.8	24.8	24.8	45	6.5	1	3	338	0.00	30.225 
14:00	24.7	24.7	24.7	44	5.9	0	1	338	0.00	30.226 
14:05	24.5	24.5	24.5	43	5.2	2	4	112	0.00	30.226 
14:10	24.4	24.4	24.4	44	5.7	0	2	112	0.00	30.226 
14:15	24.4	24.4	24.4	45	6.1	0	2	112	0.00	30.224 
14:20	25.1	25.1	25.1	46	7.3	1	2	112	0.00	30.224 
14:25	25.7	25.7	25.7	46	7.8	1	3	112	0.00	30.224 
14:30	26.3	26.3	26.3	46	8.4	0	3	112	0.00	30.220 
14:35	26.6	26.6	26.6	43	7.2	1	3	292	0.00	30.220 
14:40	26.9	26.9	26.9	44	7.9	1	4	112	0.00	30.220 
14:45	27.0	27.0	27.0	42	7.0	1	3	292	0.00	30.220 
14:50	26.9	26.9	26.9	41	6.4	1	3	270	0.00	30.220 
14:55	26.9	26.9	26.9	42	6.9	0	3	270	0.00	30.220 
15:00	27.2	27.2	27.2	42	7.2	0	2	270	0.00	30.219 
15:05	27.8	27.8	27.8	41	7.2	2	7	248	0.00	30.219 
15:10	27.9	27.9	27.9	41	7.3	1	3	270	0.00	30.219 
15:15	27.9	27.9	27.9	43	8.3	1	5	248	0.00	30.219 
15:20	27.6	27.6	27.6	40	6.5	1	3	338	0.00	30.219 
15:25	27.2	27.2	27.2	42	7.2	0	2	315	0.00	30.219 
15:30	27.3	27.3	27.3	40	6.2	0	2	248	0.00	30.216 
15:35	27.6	27.6	27.6	41	7.0	1	4	248	0.00	30.216 
15:40	28.4	28.4	28.4	40	7.2	1	3	248	0.00	30.216 
15:45	29.0	29.0	29.0	39	7.2	1	4	248	0.00	30.208 
15:50	29.1	29.1	29.1	38	6.7	1	5	248	0.00	30.208 
15:55	28.8	28.8	28.8	39	7.0	1	3	248	0.00	30.208 
16:00	28.2	28.2	28.2	40	7.0	0	2	248	0.00	30.209 
16:05	28.2	28.2	28.2	42	8.1	1	5	225	0.00	30.209 
16:10	28.2	28.2	28.2	41	7.6	1	3	270	0.00	30.209 
16:15	28.1	28.1	28.1	39	6.4	1	4	270	0.00	30.209 
16:20	27.9	27.9	27.9	39	6.2	1	6	315	0.00	30.209 
16:25	27.6	27.6	27.6	41	7.0	1	4	270	0.00	30.209 
16:30	27.6	27.6	27.6	41	7.0	0	3	338	0.00	30.208 
16:35	27.8	27.8	27.8	40	6.7	2	5	248	0.00	30.208 
16:40	27.9	27.9	27.9	39	6.2	2	5	248	0.00	30.208 
16:45	27.9	27.9	27.9	40	6.7	1	4	248	0.00	30.210 
16:50	27.9	27.9	27.9	40	6.7	1	4	248	0.00	30.210 
16:55	27.8	27.8	27.8	41	7.2	1	4	248	0.00	30.210 
17:00	27.8	27.8	27.8	41	7.2	0	2	248	0.00	30.206 
17:05	27.8	27.8	27.8	41	7.2	1	3	248	0.00	30.206 
17:10	27.8	27.8	27.8	41	7.2	1	3	248	0.00	30.206 
17:15	27.8	27.8	27.8	41	7.2	1	2	248	0.00	30.210 
17:20	27.6	27.6	27.6	41	7.0	1	2	248	0.00	30.210 
17:25	27.5	27.5	27.5	42	7.5	1	3	248	0.00	30.210 
17:30	27.3	27.3	27.3	43	7.8	1	4	248	0.00	30.211 
17:35	27.2	27.2	27.2	43	7.7	1	2	248	0.00	30.211 
17:40	27.2	27.2	27.2	43	7.7	1	3	248	0.00	30.211 
17:45	27.0	27.0	27.0	43	7.5	0	1	248	0.00	30.212 
17:50	26.9	26.9	26.9	44	7.9	0	1	248	0.00	30.212 
17:55	26.6	26.6	26.6	45	8.2	0	1	248	0.00	30.212 
18:00	26.4	26.4	26.4	46	8.5	0	1	248	0.00	30.217 
18:05	26.1	26.1	26.1	46	8.2	0	0	---	0.00	30.217 
18:10	25.8	25.8	25.8	47	8.4	1	4	112	0.00	30.217 
18:15	25.7	25.7	25.7	47	8.3	0	2	225	0.00	30.220 
18:20	25.6	25.6	25.6	47	8.2	0	1	225	0.00	30.220 
18:25	25.4	25.4	25.4	48	8.5	0	0	---	0.00	30.220 
18:30	25.1	25.1	25.1	49	8.7	0	0	---	0.00	30.219 
18:35	24.8	24.8	24.8	50	8.8	0	0	---	0.00	30.219 
18:40	24.5	24.5	24.5	50	8.6	0	0	---	0.00	30.219 
18:45	24.2	24.2	24.2	50	8.3	0	0	---	0.00	30.219 
18:50	23.9	23.9	23.9	51	8.4	0	0	---	0.00	30.219 
18:55	23.6	23.6	23.6	52	8.6	0	0	---	0.00	30.219 
19:00	23.5	23.5	23.5	53	8.9	0	0	---	0.00	30.220 
19:05	23.2	23.2	23.2	53	8.6	0	0	---	0.00	30.220 
19:10	22.9	22.9	22.9	54	8.8	0	0	---	0.00	30.220 
19:15	22.5	22.5	22.5	54	8.4	0	0	---	0.00	30.219 
19:20	22.4	22.4	22.4	55	8.7	0	0	---	0.00	30.219 
19:25	22.1	22.1	22.1	55	8.4	0	0	---	0.00	30.219 
19:30	21.9	21.9	21.9	56	8.6	0	0	---	0.00	30.214 
19:35	21.9	21.9	21.9	56	8.6	0	0	---	0.00	30.214 
19:40	21.6	21.6	21.6	57	8.8	0	0	---	0.00	30.214 
19:45	21.4	21.4	21.4	58	8.9	0	0	---	0.00	30.212 
19:50	21.4	21.4	21.4	60	9.7	0	0	---	0.00	30.212 
19:55	21.3	21.3	21.3	61	10.0	0	0	---	0.00	30.212 
20:00	21.1	21.1	21.1	61	9.8	0	0	---	0.00	30.214 
20:05	20.8	20.8	20.8	61	9.5	0	0	---	0.00	30.214 
20:10	20.6	20.6	20.6	62	9.7	0	0	---	0.00	30.214 
20:15	20.5	20.5	20.5	63	9.9	0	0	---	0.00	30.209 
20:20	20.3	20.3	20.3	63	9.7	0	0	---	0.00	30.209 
20:25	20.2	20.2	20.2	63	9.7	0	0	---	0.00	30.209 
20:30	20.0	20.0	20.0	64	9.8	0	0	---	0.00	30.209 
20:35	19.9	19.9	19.9	64	9.7	0	0	---	0.00	30.209 
20:40	19.7	19.7	19.7	65	9.9	0	0	---	0.00	30.209 
20:45	19.5	19.5	19.5	65	9.7	0	0	---	0.00	30.211 
20:50	19.2	19.2	19.2	65	9.4	0	0	---	0.00	30.211 
20:55	19.1	19.1	19.1	65	9.3	0	0	---	0.00	30.211 
21:00	18.8	18.8	18.8	65	9.0	0	0	---	0.00	30.218 
21:05	18.6	18.6	18.6	67	9.5	0	0	---	0.00	30.218 
21:10	18.4	18.4	18.4	68	9.6	0	0	---	0.00	30.218 
21:15	18.4	18.4	18.4	69	10.0	0	0	---	0.00	30.210 
21:20	18.4	18.4	18.4	69	10.0	0	0	---	0.00	30.210 
21:25	18.4	18.4	18.4	70	10.3	0	0	---	0.00	30.210 
21:30	18.3	18.3	18.3	70	10.2	0	0	---	0.00	30.215 
21:35	18.1	18.1	18.1	71	10.3	0	0	---	0.00	30.215 
21:40	18.1	18.1	18.1	71	10.3	0	0	---	0.00	30.215 
21:45	18.1	18.1	18.1	71	10.3	0	0	---	0.00	30.213 
21:50	18.1	18.1	18.1	72	10.6	0	1	225	0.00	30.213 
21:55	18.1	18.1	18.1	72	10.6	0	0	---	0.00	30.213 
22:00	18.1	18.1	18.1	72	10.6	0	0	---	0.00	30.213 
22:05	18.1	18.1	18.1	72	10.6	0	0	---	0.00	30.213 
22:10	18.1	18.1	18.1	73	10.9	0	0	---	0.00	30.213 
22:15	18.1	18.1	18.1	73	10.9	0	0	---	0.00	30.212 
22:20	18.0	18.0	18.0	73	10.8	0	0	---	0.00	30.212 
22:25	18.0	18.0	18.0	73	10.8	0	0	---	0.00	30.212 
22:30	18.0	18.0	18.0	74	11.1	0	0	---	0.00	30.210 
22:35	18.1	18.1	18.1	74	11.2	0	0	---	0.00	30.210 
22:40	18.4	18.4	18.4	74	11.5	0	0	---	0.00	30.210 
22:45	18.6	18.6	18.6	74	11.7	0	0	---	0.00	30.205 
22:50	18.6	18.6	18.6	74	11.7	0	0	---	0.00	30.205 
22:55	18.6	18.6	18.6	74	11.7	0	0	---	0.00	30.205 
23:00	18.4	18.4	18.4	74	11.5	0	0	---	0.00	30.213 
23:05	18.3	18.3	18.3	74	11.4	0	1	225	0.00	30.213 
23:10	18.3	18.3	18.3	74	11.4	0	1	225	0.00	30.213 
23:15	18.4	18.4	18.4	74	11.5	0	1	225	0.00	30.203 
23:20	18.6	18.6	18.6	74	11.7	0	1	225	0.00	30.203 
23:25	18.6	18.6	18.6	74	11.7	0	1	225	0.00	30.203 
23:30	18.9	18.9	18.9	74	12.0	0	1	225	0.00	30.198 
23:35	19.1	19.1	19.1	73	11.9	0	1	225	0.00	30.198 
23:40	19.2	19.2	19.2	73	12.0	0	1	225	0.00	30.198 
23:45	19.7	19.7	19.7	72	12.2	0	1	225	0.00	30.194 
23:50	19.9	19.9	19.9	72	12.4	0	1	225	0.00	30.194 
23:55	20.0	20.0	20.0	72	12.5	0	1	225	0.00	30.194 

CoCoRaHS
IN-AL-39
A2 Web Hosting
Creative Commons License
GoDaddy
search engine by freefind advanced

loaded 2018-11-17 22:26:41 • last modified 2010-11-18 10:43:29
Privacy PolicyDisclaimer
• wx.awcolley.com is powered by PmWiki v.2002016 •
• all content (unless otherwise noted) © 2018 A W Colley